createdAt,value
2018-07-02T00:00:09.070Z,13.50
2018-07-02T00:02:37.918Z,13.50
2018-07-02T00:05:06.845Z,13.60
2018-07-02T00:07:35.624Z,13.50
2018-07-02T00:10:04.655Z,13.50
2018-07-02T00:12:33.578Z,13.40
2018-07-02T00:15:02.372Z,13.40
2018-07-02T00:17:31.215Z,13.40
2018-07-02T00:19:59.981Z,13.30
2018-07-02T00:22:28.746Z,13.30
2018-07-02T00:24:57.524Z,13.20
2018-07-02T00:27:26.289Z,13.30
2018-07-02T00:29:55.075Z,13.40
2018-07-02T00:32:23.828Z,13.30
2018-07-02T00:34:52.614Z,13.30
2018-07-02T00:37:21.380Z,13.20
2018-07-02T00:39:50.279Z,13.20
2018-07-02T00:42:19.058Z,13.10
2018-07-02T00:44:47.842Z,13.10
2018-07-02T00:47:16.595Z,13.10
2018-07-02T00:49:45.365Z,13.10
2018-07-02T00:52:14.126Z,12.90
2018-07-02T00:54:43.005Z,13.00
2018-07-02T00:57:11.715Z,13.00
2018-07-02T00:59:40.508Z,12.90
2018-07-02T01:02:09.276Z,12.90
2018-07-02T01:04:38.166Z,12.80
2018-07-02T01:07:08.403Z,12.80
2018-07-02T01:09:37.309Z,12.80
2018-07-02T01:12:06.480Z,12.70
2018-07-02T01:14:35.290Z,12.80
2018-07-02T01:17:04.153Z,12.80
2018-07-02T01:19:32.938Z,12.70
2018-07-02T01:22:01.778Z,12.70
2018-07-02T01:24:30.568Z,12.70
2018-07-02T01:26:59.414Z,12.70
2018-07-02T01:29:28.294Z,12.70
2018-07-02T01:31:57.058Z,12.60
2018-07-02T01:34:25.841Z,12.60
2018-07-02T01:36:54.636Z,12.60
2018-07-02T01:39:23.390Z,12.50
2018-07-02T01:41:52.211Z,12.50
2018-07-02T01:44:21.015Z,12.40
2018-07-02T01:46:49.830Z,12.30
2018-07-02T01:49:18.599Z,12.20
2018-07-02T01:51:47.406Z,12.20
2018-07-02T01:54:16.166Z,12.10
2018-07-02T01:56:44.923Z,12.00
2018-07-02T01:59:13.774Z,12.00
2018-07-02T02:01:42.562Z,12.00
2018-07-02T02:04:11.328Z,11.90
2018-07-02T02:06:40.107Z,11.90
2018-07-02T02:09:10.479Z,11.90
2018-07-02T02:11:39.480Z,11.90
2018-07-02T02:14:08.611Z,11.90
2018-07-02T02:16:37.461Z,11.90
2018-07-02T02:19:06.546Z,11.80
2018-07-02T02:21:35.334Z,11.80
2018-07-02T02:24:04.103Z,11.80
2018-07-02T02:26:32.897Z,11.80
2018-07-02T02:29:01.703Z,11.80
2018-07-02T02:31:30.592Z,11.80
2018-07-02T02:33:59.351Z,11.80
2018-07-02T02:36:28.174Z,11.80
2018-07-02T02:38:56.996Z,11.80
2018-07-02T02:41:25.779Z,11.70
2018-07-02T02:43:54.549Z,11.80
2018-07-02T02:46:23.347Z,11.80
2018-07-02T02:48:52.127Z,11.90
2018-07-02T02:51:21.837Z,12.00
2018-07-02T02:53:50.594Z,12.00
2018-07-02T02:56:19.413Z,12.00
2018-07-02T02:58:48.166Z,12.10
2018-07-02T03:01:16.990Z,12.00
2018-07-02T03:03:46.761Z,12.00
2018-07-02T03:06:15.532Z,12.10
2018-07-02T03:08:44.398Z,12.10
2018-07-02T03:11:13.186Z,12.10
2018-07-02T03:13:41.962Z,12.20
2018-07-02T03:16:10.750Z,12.10
2018-07-02T03:18:39.503Z,12.00
2018-07-02T03:21:08.313Z,12.10
2018-07-02T03:23:37.134Z,12.10
2018-07-02T03:26:05.895Z,11.90
2018-07-02T03:28:34.677Z,11.90
2018-07-02T03:31:03.600Z,11.80
2018-07-02T03:33:32.486Z,11.80
2018-07-02T03:36:01.266Z,11.80
2018-07-02T03:38:30.097Z,11.90
2018-07-02T03:40:58.958Z,11.90
2018-07-02T03:43:27.927Z,12.00
2018-07-02T03:45:56.901Z,12.10
2018-07-02T03:48:25.717Z,12.20
2018-07-02T03:50:55.318Z,12.10
2018-07-02T03:53:24.564Z,11.90
2018-07-02T03:55:53.951Z,12.00
2018-07-02T03:58:23.326Z,12.00
2018-07-02T04:00:52.712Z,12.20
2018-07-02T04:03:22.528Z,12.20
2018-07-02T04:05:52.728Z,12.30
2018-07-02T04:08:21.842Z,12.30
2018-07-02T04:10:52.773Z,12.30
2018-07-02T04:13:21.734Z,12.40
2018-07-02T04:15:52.003Z,12.40
2018-07-02T04:18:21.004Z,12.40
2018-07-02T04:20:49.825Z,12.40
2018-07-02T04:23:18.648Z,12.30
2018-07-02T04:25:47.533Z,12.30
2018-07-02T04:28:16.328Z,12.20
2018-07-02T04:30:45.087Z,12.00
2018-07-02T04:33:13.991Z,12.00
2018-07-02T04:35:42.800Z,12.20
2018-07-02T04:38:11.563Z,12.30
2018-07-02T04:40:40.479Z,12.50
2018-07-02T04:43:09.327Z,12.60
2018-07-02T04:45:38.082Z,12.60
2018-07-02T04:48:06.876Z,12.80
2018-07-02T04:50:35.604Z,12.90
2018-07-02T04:53:04.382Z,12.90
2018-07-02T04:55:33.366Z,13.10
2018-07-02T04:58:02.526Z,13.30
2018-07-02T05:00:31.458Z,13.30
2018-07-02T05:03:00.364Z,13.40
2018-07-02T05:05:29.147Z,13.40
2018-07-02T05:07:57.941Z,13.50
2018-07-02T05:10:26.834Z,13.50
2018-07-02T05:12:55.618Z,13.60
2018-07-02T05:15:24.394Z,13.70
2018-07-02T05:17:53.316Z,13.70
2018-07-02T05:20:22.066Z,13.80
2018-07-02T05:22:50.975Z,13.90
2018-07-02T05:25:19.815Z,13.90
2018-07-02T05:27:48.658Z,14.00
2018-07-02T05:30:17.442Z,14.10
2018-07-02T05:32:46.239Z,14.20
2018-07-02T05:35:15.000Z,14.30
2018-07-02T05:37:43.823Z,14.40
2018-07-02T05:40:12.706Z,14.50
2018-07-02T05:42:41.480Z,14.50
2018-07-02T05:45:10.263Z,14.50
2018-07-02T05:47:39.024Z,14.60
2018-07-02T05:50:07.806Z,14.70
2018-07-02T05:52:36.547Z,14.70
2018-07-02T05:55:05.543Z,14.70
2018-07-02T05:57:34.302Z,14.70
2018-07-02T06:00:03.141Z,14.80
2018-07-02T06:02:31.916Z,14.80
2018-07-02T06:05:00.811Z,14.80
2018-07-02T06:07:29.906Z,14.90
2018-07-02T06:09:58.807Z,15.00
2018-07-02T06:12:27.550Z,15.20
2018-07-02T06:14:56.473Z,15.30
2018-07-02T06:17:25.263Z,15.30
2018-07-02T06:19:54.045Z,15.40
2018-07-02T06:22:22.834Z,15.60
2018-07-02T06:24:51.630Z,15.60
2018-07-02T06:27:20.405Z,15.70
2018-07-02T06:29:49.195Z,15.90
2018-07-02T06:32:17.999Z,15.90
2018-07-02T06:34:46.881Z,16.00
2018-07-02T06:37:15.724Z,16.20
2018-07-02T06:39:44.467Z,16.20
2018-07-02T06:42:13.223Z,16.30
2018-07-02T06:44:42.000Z,16.50
2018-07-02T06:47:10.843Z,16.50
2018-07-02T06:49:39.622Z,16.70
2018-07-02T06:52:08.401Z,16.90
2018-07-02T06:54:37.203Z,17.00
2018-07-02T06:57:05.934Z,17.20
2018-07-02T06:59:34.742Z,17.30
2018-07-02T07:02:03.589Z,17.30
2018-07-02T07:04:32.358Z,17.30
2018-07-02T07:07:01.163Z,17.40
2018-07-02T07:09:30.288Z,17.50
2018-07-02T07:11:59.034Z,17.70
2018-07-02T07:14:27.823Z,17.90
2018-07-02T07:16:56.571Z,18.10
2018-07-02T07:19:25.397Z,18.30
2018-07-02T07:21:54.340Z,18.40
2018-07-02T07:24:23.183Z,18.40
2018-07-02T07:26:51.947Z,18.50
2018-07-02T07:29:20.771Z,18.50
2018-07-02T07:31:49.542Z,18.70
2018-07-02T07:34:18.434Z,18.70
2018-07-02T07:36:47.215Z,18.90
2018-07-02T07:39:15.999Z,19.00
2018-07-02T07:41:44.774Z,19.00
2018-07-02T07:44:13.598Z,19.00
2018-07-02T07:46:42.386Z,19.20
2018-07-02T07:49:11.174Z,19.40
2018-07-02T07:51:39.953Z,19.50
2018-07-02T07:54:09.105Z,19.80
2018-07-02T07:56:37.858Z,19.80
2018-07-02T07:59:06.648Z,19.90
2018-07-02T08:01:35.510Z,19.90
2018-07-02T08:04:04.330Z,19.80
2018-07-02T08:06:33.115Z,19.80
2018-07-02T08:09:01.905Z,19.80
2018-07-02T08:11:30.663Z,19.90
2018-07-02T08:13:59.475Z,20.00
2018-07-02T08:16:28.263Z,19.80
2018-07-02T08:18:57.114Z,19.80
2018-07-02T08:21:25.947Z,19.90
2018-07-02T08:23:54.762Z,20.00
2018-07-02T08:26:23.526Z,20.00
2018-07-02T08:28:58.832Z,20.20
2018-07-02T08:31:27.663Z,20.10
2018-07-02T08:33:56.459Z,20.20
2018-07-02T08:36:25.207Z,20.50
2018-07-02T08:38:54.033Z,20.70
2018-07-02T08:41:22.833Z,20.60
2018-07-02T08:43:51.606Z,20.90
2018-07-02T08:46:20.394Z,20.90
2018-07-02T08:48:49.182Z,21.10
2018-07-02T08:51:17.971Z,20.60
2018-07-02T08:53:47.062Z,20.70
2018-07-02T08:56:15.887Z,20.90
2018-07-02T08:58:44.645Z,21.10
2018-07-02T09:01:13.463Z,20.90
2018-07-02T09:03:42.285Z,21.00
2018-07-02T09:06:11.061Z,21.10
2018-07-02T09:08:39.885Z,21.20
2018-07-02T09:11:08.679Z,21.20
2018-07-02T09:16:05.967Z,21.60
2018-07-02T09:18:34.835Z,21.70
2018-07-02T09:21:03.595Z,21.70
2018-07-02T09:23:32.338Z,21.70
2018-07-02T09:26:01.124Z,21.30
2018-07-02T09:28:29.865Z,21.50
2018-07-02T09:30:58.705Z,21.10
2018-07-02T09:33:27.459Z,21.00
2018-07-02T09:35:56.287Z,21.20
2018-07-02T09:38:25.587Z,21.40
2018-07-02T09:40:54.382Z,21.40
2018-07-02T09:43:23.139Z,21.30
2018-07-02T09:45:52.168Z,21.10
2018-07-02T09:48:20.946Z,20.90
2018-07-02T09:50:49.719Z,20.70
2018-07-02T09:53:18.474Z,20.90
2018-07-02T09:55:47.240Z,21.20
2018-07-02T09:58:15.978Z,21.60
2018-07-02T10:00:44.765Z,22.30
2018-07-02T10:03:13.594Z,22.60
2018-07-02T10:05:42.382Z,22.70
2018-07-02T10:08:11.258Z,22.60
2018-07-02T10:10:40.027Z,22.60
2018-07-02T10:13:08.778Z,22.80
2018-07-02T10:15:37.548Z,23.20
2018-07-02T10:18:06.322Z,22.90
2018-07-02T10:20:35.204Z,22.50
2018-07-02T10:23:04.102Z,22.30
2018-07-02T10:25:32.890Z,22.30
2018-07-02T10:28:01.645Z,22.20
2018-07-02T10:30:30.495Z,22.40
2018-07-02T10:32:59.255Z,22.70
2018-07-02T10:35:28.051Z,22.80
2018-07-02T10:37:56.808Z,22.90
2018-07-02T10:40:25.619Z,22.80
2018-07-02T10:42:54.378Z,22.90
2018-07-02T10:45:23.151Z,22.70
2018-07-02T10:47:52.149Z,22.90
2018-07-02T10:50:21.057Z,23.00
2018-07-02T10:52:49.925Z,22.90
2018-07-02T10:55:18.815Z,23.00
2018-07-02T10:57:47.600Z,22.90
2018-07-02T11:00:16.395Z,22.90
2018-07-02T11:02:45.175Z,23.20
2018-07-02T11:05:13.993Z,23.30
2018-07-02T11:07:42.923Z,23.50
2018-07-02T11:10:11.709Z,23.80
2018-07-02T11:12:40.476Z,24.40
2018-07-02T11:15:09.234Z,24.70
2018-07-02T11:17:38.062Z,24.90
2018-07-02T11:20:06.811Z,24.50
2018-07-02T11:22:35.583Z,24.80
2018-07-02T11:25:04.388Z,24.10
2018-07-02T11:27:33.995Z,24.00
2018-07-02T11:30:02.777Z,24.10
2018-07-02T11:32:31.580Z,24.30
2018-07-02T11:35:00.327Z,24.10
2018-07-02T11:39:57.564Z,24.10
2018-07-02T11:42:26.346Z,24.30
2018-07-02T11:44:55.158Z,24.60
2018-07-02T11:47:24.003Z,24.80
2018-07-02T11:49:52.978Z,24.90
2018-07-02T11:52:21.811Z,25.10
2018-07-02T11:54:50.628Z,25.00
2018-07-02T11:57:19.411Z,24.80
2018-07-02T11:59:48.160Z,24.60
2018-07-02T12:02:17.007Z,24.60
2018-07-02T12:04:45.759Z,24.40
2018-07-02T12:07:14.625Z,25.00
2018-07-02T12:09:43.394Z,24.70
2018-07-02T12:12:12.908Z,24.80
2018-07-02T12:14:41.707Z,25.70
2018-07-02T12:17:10.524Z,28.20
2018-07-02T12:19:39.435Z,29.30
2018-07-02T12:22:08.197Z,28.50
2018-07-02T12:24:37.068Z,27.90
2018-07-02T12:27:05.848Z,27.30
2018-07-02T12:29:34.658Z,26.90
2018-07-02T12:32:03.438Z,26.30
2018-07-02T12:34:32.244Z,25.60
2018-07-02T12:37:01.022Z,25.40
2018-07-02T12:39:29.806Z,25.10
2018-07-02T12:41:58.608Z,24.70
2018-07-02T12:44:27.384Z,24.20
2018-07-02T12:46:56.195Z,24.10
2018-07-02T12:49:25.009Z,23.90
2018-07-02T12:51:53.752Z,23.80
2018-07-02T12:54:22.519Z,24.20
2018-07-02T12:56:51.377Z,24.80
2018-07-02T12:59:20.121Z,27.10
2018-07-02T13:01:48.964Z,29.60
2018-07-02T13:04:17.746Z,31.10
2018-07-02T13:06:46.488Z,33.40
2018-07-02T13:09:15.258Z,33.60
2018-07-02T13:11:44.063Z,32.80
2018-07-02T13:14:12.958Z,31.50
2018-07-02T13:16:41.722Z,30.80
2018-07-02T13:19:10.534Z,29.00
2018-07-02T13:21:39.371Z,28.00
2018-07-02T13:24:08.159Z,27.10
2018-07-02T13:26:37.002Z,26.60
2018-07-02T13:29:05.823Z,26.00
2018-07-02T13:31:34.568Z,25.30
2018-07-02T13:34:03.350Z,25.80
2018-07-02T13:36:32.153Z,27.40
2018-07-02T13:39:00.907Z,30.10
2018-07-02T13:41:29.777Z,31.20
2018-07-02T13:43:58.575Z,32.10
2018-07-02T13:46:27.319Z,32.00
2018-07-02T13:48:56.227Z,32.70
2018-07-02T13:51:24.970Z,30.70
2018-07-02T13:53:53.756Z,28.90
2018-07-02T13:58:51.070Z,26.90
2018-07-02T14:01:19.815Z,26.50
2018-07-02T14:06:17.090Z,28.10
2018-07-02T14:08:45.867Z,27.80
2018-07-02T14:11:14.606Z,27.70
2018-07-02T14:13:43.410Z,27.70
2018-07-02T14:16:12.158Z,27.40
2018-07-02T14:18:41.063Z,27.00
2018-07-02T14:21:09.842Z,28.40
2018-07-02T14:23:38.746Z,29.10
2018-07-02T14:26:07.624Z,31.20
2018-07-02T14:28:36.426Z,34.10
2018-07-02T14:31:05.210Z,34.40
2018-07-02T14:33:33.972Z,36.50
2018-07-02T14:36:02.846Z,36.10
2018-07-02T14:38:31.682Z,38.00
2018-07-02T14:41:00.478Z,36.60
2018-07-02T14:43:29.281Z,35.80
2018-07-02T14:45:58.039Z,36.90
2018-07-02T14:48:27.057Z,36.40
2018-07-02T14:50:55.988Z,35.90
2018-07-02T14:53:24.843Z,35.30
2018-07-02T14:55:53.773Z,35.00
2018-07-02T14:58:22.509Z,33.80
2018-07-02T15:00:51.491Z,32.90
2018-07-02T15:03:20.411Z,33.80
2018-07-02T15:05:50.090Z,34.80
2018-07-02T15:10:47.487Z,32.90
2018-07-02T15:13:16.307Z,32.70
2018-07-02T15:15:45.370Z,32.60
2018-07-02T15:18:14.635Z,32.10
2018-07-02T15:20:43.375Z,31.00
2018-07-02T15:23:12.400Z,30.30
2018-07-02T15:25:41.186Z,29.60
2018-07-02T15:28:09.914Z,29.90
2018-07-02T15:30:38.718Z,29.80
2018-07-02T15:33:07.528Z,31.40
2018-07-02T15:35:36.407Z,32.00
2018-07-02T15:38:05.393Z,33.30
2018-07-02T15:40:34.238Z,34.10
2018-07-02T15:43:03.066Z,34.30
2018-07-02T15:45:31.959Z,34.80
2018-07-02T15:48:00.860Z,35.50
2018-07-02T15:50:29.667Z,36.40
2018-07-02T15:52:58.551Z,35.70
2018-07-02T15:55:27.488Z,34.80
2018-07-02T15:57:56.238Z,34.20
2018-07-02T16:00:25.088Z,33.80
2018-07-02T16:05:22.326Z,33.20
2018-07-02T16:07:51.219Z,33.40
2018-07-02T16:10:19.991Z,32.20
2018-07-02T16:12:48.921Z,31.40
2018-07-02T16:15:17.622Z,31.30
2018-07-02T16:22:50.193Z,32.80
2018-07-02T16:25:18.975Z,34.00
2018-07-02T16:27:47.939Z,33.30
2018-07-02T16:30:16.728Z,32.90
2018-07-02T16:32:45.508Z,32.00
2018-07-02T16:35:14.324Z,30.60
2018-07-02T16:37:43.089Z,30.20
2018-07-02T16:40:11.875Z,29.20
2018-07-02T16:42:40.627Z,28.50
2018-07-02T16:47:44.532Z,26.90
2018-07-02T16:50:13.456Z,26.60
2018-07-02T16:52:42.201Z,26.50
2018-07-02T16:55:11.165Z,26.10
2018-07-02T16:57:39.974Z,25.80
2018-07-02T17:00:08.754Z,25.70
2018-07-02T17:02:37.687Z,25.70
2018-07-02T17:05:06.746Z,25.40
2018-07-02T17:07:35.505Z,25.50
2018-07-02T17:10:04.540Z,25.50
2018-07-02T17:12:33.376Z,25.20
2018-07-02T17:15:02.203Z,25.30
2018-07-02T17:17:31.007Z,25.30
2018-07-02T17:19:59.806Z,25.20
2018-07-02T17:22:28.648Z,25.00
2018-07-02T17:24:57.507Z,24.90
2018-07-02T17:27:26.226Z,24.80
2018-07-02T17:29:55.006Z,24.80
2018-07-02T17:34:52.214Z,24.50
2018-07-02T17:37:21.207Z,24.60
2018-07-02T17:39:50.095Z,24.60
2018-07-02T17:42:18.932Z,24.40
2018-07-02T17:44:47.694Z,24.80
2018-07-02T17:47:16.447Z,26.10
2018-07-02T17:49:45.341Z,27.40
2018-07-02T17:52:14.098Z,28.10
2018-07-02T17:54:42.886Z,28.80
2018-07-02T17:57:11.766Z,28.60
2018-07-02T17:59:40.514Z,29.40
2018-07-02T18:02:09.383Z,29.80
2018-07-02T18:04:38.170Z,30.80
2018-07-02T18:07:06.940Z,30.80
2018-07-02T18:09:35.702Z,30.70
2018-07-02T18:12:04.459Z,30.70
2018-07-02T18:14:33.218Z,30.70
2018-07-02T18:17:02.039Z,31.10
2018-07-02T18:19:30.907Z,30.50
2018-07-02T18:24:28.161Z,30.60
2018-07-02T18:26:56.988Z,30.40
2018-07-02T18:29:25.776Z,30.30
2018-07-02T18:31:54.575Z,30.60
2018-07-02T18:34:23.374Z,30.10
2018-07-02T18:36:52.206Z,29.80
2018-07-02T18:39:21.023Z,29.60
2018-07-02T18:41:49.916Z,29.30
2018-07-02T18:44:18.724Z,29.10
2018-07-02T18:46:47.513Z,29.10
2018-07-02T18:49:16.281Z,28.80
2018-07-02T18:51:45.092Z,28.20
2018-07-02T18:54:13.863Z,27.70
2018-07-02T18:56:42.705Z,27.60
2018-07-02T18:59:11.466Z,27.00
2018-07-02T19:01:40.255Z,26.70
2018-07-02T19:04:09.010Z,26.40
2018-07-02T19:06:37.922Z,25.90
2018-07-02T19:09:08.598Z,25.60
2018-07-02T19:11:37.377Z,25.60
2018-07-02T19:14:06.140Z,25.30
2018-07-02T19:16:35.187Z,25.10
2018-07-02T19:19:04.004Z,24.70
2018-07-02T19:21:32.803Z,24.30
2018-07-02T19:24:01.582Z,24.00
2018-07-02T19:26:30.339Z,23.80
2018-07-02T19:28:59.166Z,23.50
2018-07-02T19:31:28.067Z,23.30
2018-07-02T19:33:56.959Z,23.20
2018-07-02T19:36:25.831Z,23.00
2018-07-02T19:38:54.683Z,22.80
2018-07-02T19:41:23.495Z,22.60
2018-07-02T19:46:20.948Z,22.30
2018-07-02T19:48:49.671Z,22.10
2018-07-02T19:51:18.552Z,21.90
2018-07-02T19:53:47.302Z,21.80
2018-07-02T19:56:16.175Z,21.70
2018-07-02T19:58:45.673Z,21.60
2018-07-02T20:01:15.106Z,21.50
2018-07-02T20:03:43.867Z,21.30
2018-07-02T20:06:13.156Z,21.20
2018-07-02T20:08:41.911Z,21.10
2018-07-02T20:11:10.698Z,21.10
2018-07-02T20:13:39.481Z,20.90
2018-07-02T20:16:08.264Z,20.80
2018-07-02T20:18:37.309Z,20.80
2018-07-02T20:21:06.099Z,20.70
2018-07-02T20:23:34.924Z,20.60
2018-07-02T20:26:03.792Z,20.60
2018-07-02T20:28:32.899Z,20.50
2018-07-02T20:31:01.770Z,20.40
2018-07-02T20:33:30.662Z,20.40
2018-07-02T20:35:59.491Z,20.30
2018-07-02T20:38:28.345Z,20.20
2018-07-02T20:40:57.112Z,20.10
2018-07-02T20:43:25.883Z,20.10
2018-07-02T20:45:54.674Z,20.00
2018-07-02T20:48:23.469Z,19.90
2018-07-02T20:50:52.224Z,19.90
2018-07-02T20:53:21.064Z,19.80
2018-07-02T20:55:49.834Z,19.80
2018-07-02T20:58:18.753Z,19.80
2018-07-02T21:00:47.523Z,19.70
2018-07-02T21:03:16.301Z,19.70
2018-07-02T21:05:45.133Z,19.60
2018-07-02T21:08:14.028Z,19.50
2018-07-02T21:10:42.908Z,19.50
2018-07-02T21:13:11.708Z,19.40
2018-07-02T21:15:40.573Z,19.40
2018-07-02T21:18:09.383Z,19.30
2018-07-02T21:20:38.133Z,19.30
2018-07-02T21:23:06.962Z,19.20
2018-07-02T21:25:36.208Z,19.20
2018-07-02T21:28:05.298Z,19.20
2018-07-02T21:30:34.143Z,19.10
2018-07-02T21:33:03.135Z,19.10
2018-07-02T21:35:32.443Z,19.00
2018-07-02T21:38:01.321Z,19.00
2018-07-02T21:42:58.699Z,18.90
2018-07-02T21:45:27.595Z,18.90
2018-07-02T21:47:56.379Z,18.80
2018-07-02T21:50:25.123Z,18.80
2018-07-02T21:52:54.422Z,18.80
2018-07-02T21:55:23.286Z,18.70
2018-07-02T21:57:52.287Z,18.70
2018-07-02T22:00:21.031Z,18.70
2018-07-02T22:02:49.835Z,18.60
2018-07-02T22:05:18.609Z,18.60
2018-07-02T22:07:47.393Z,18.50
2018-07-02T22:10:16.151Z,18.50
2018-07-02T22:12:44.940Z,18.50
2018-07-02T22:15:13.670Z,18.50
2018-07-02T22:17:42.622Z,18.40
2018-07-02T22:20:11.526Z,18.40
2018-07-02T22:22:40.372Z,18.40
2018-07-02T22:25:09.118Z,18.40
2018-07-02T22:27:37.941Z,18.40
2018-07-02T22:30:06.727Z,18.30
2018-07-02T22:32:35.618Z,18.20
2018-07-02T22:35:04.407Z,18.20
2018-07-02T22:37:33.173Z,18.10
2018-07-02T22:40:01.975Z,18.10
2018-07-02T22:44:59.302Z,18.00
2018-07-02T22:47:28.143Z,18.00
2018-07-02T22:49:56.934Z,17.90
2018-07-02T22:52:25.679Z,17.90
2018-07-02T22:54:54.484Z,17.90
2018-07-02T22:57:23.302Z,17.90
2018-07-02T22:59:52.910Z,17.90
2018-07-02T23:02:21.692Z,17.90
2018-07-02T23:04:50.469Z,17.80
2018-07-02T23:07:19.280Z,17.80
2018-07-02T23:09:48.075Z,17.70
2018-07-02T23:12:16.835Z,17.70
2018-07-02T23:14:45.747Z,17.60
2018-07-02T23:17:14.523Z,17.60
2018-07-02T23:19:43.327Z,17.60
2018-07-02T23:22:12.125Z,17.50
2018-07-02T23:24:41.007Z,17.40
2018-07-02T23:27:09.819Z,17.40
2018-07-02T23:29:38.592Z,17.30
2018-07-02T23:32:07.385Z,17.30
2018-07-02T23:34:36.164Z,17.30
2018-07-02T23:37:05.554Z,17.30
2018-07-02T23:39:34.371Z,17.30
2018-07-02T23:42:03.142Z,17.30
2018-07-02T23:44:31.939Z,17.30
2018-07-02T23:47:00.833Z,17.30
2018-07-02T23:49:29.644Z,17.30
2018-07-02T23:51:58.407Z,17.20
2018-07-02T23:54:27.198Z,17.20
2018-07-02T23:56:55.988Z,17.20
2018-07-02T23:59:24.774Z,17.20
